Duvernay, Canada
Current Conditions -  °F | °C
As of 7:00 AM on Thursday 29 Jan 2015 (Local Time) from CYUL Reporting Station
Few Clouds Few Clouds  
Wind Chill:   Ceiling: Unl
Heat Index:   Visibility: 30mi
Dew Point: -2°   Wind: 3mph
Humidity: 67%   Direction: 130°SE
Pressure: 30.29"   Gusts: NA
Location:  45.57°N, 73.85°W
Report Text: CYUL 291200Z 13003KT 100V160 30SM FEW240 M14/M19 A3029 RMK CI1 SLP260
Loading
Personal Weather Stations






























Interactive Weather Map New forecast layout! Learn more

10-Day Weather Forecast

Advertisements
Track Severe Weather on mobile